sensor_id;sensor_type;location;lat;lon;timestamp;P1;durP1;ratioP1;P2;durP2;ratioP2
21671;SDS011;10997;52.242;8.168;2023-03-01T00:10:45;15.98;;;9.07;;
21671;SDS011;10997;52.242;8.168;2023-03-01T00:15:46;13.18;;;8.20;;
21671;SDS011;10997;52.242;8.168;2023-03-01T00:20:50;16.73;;;8.80;;
21671;SDS011;10997;52.242;8.168;2023-03-01T00:25:52;12.02;;;7.78;;
21671;SDS011;10997;52.242;8.168;2023-03-01T00:30:53;11.40;;;7.95;;
21671;SDS011;10997;52.242;8.168;2023-03-01T00:35:53;13.07;;;7.93;;
21671;SDS011;10997;52.242;8.168;2023-03-01T00:40:54;14.60;;;8.02;;
21671;SDS011;10997;52.242;8.168;2023-03-01T00:45:54;15.57;;;8.73;;
21671;SDS011;10997;52.242;8.168;2023-03-01T00:50:55;12.60;;;8.50;;
21671;SDS011;10997;52.242;8.168;2023-03-01T00:55:56;13.93;;;8.25;;
21671;SDS011;10997;52.242;8.168;2023-03-01T01:00:57;17.80;;;9.00;;
21671;SDS011;10997;52.242;8.168;2023-03-01T01:05:58;13.73;;;8.35;;
21671;SDS011;10997;52.242;8.168;2023-03-01T01:10:59;14.98;;;8.65;;
21671;SDS011;10997;52.242;8.168;2023-03-01T01:16:02;16.33;;;8.93;;
21671;SDS011;10997;52.242;8.168;2023-03-01T01:21:07;14.13;;;8.43;;
21671;SDS011;10997;52.242;8.168;2023-03-01T01:31:11;14.05;;;8.20;;
21671;SDS011;10997;52.242;8.168;2023-03-01T01:36:12;17.20;;;9.10;;
21671;SDS011;10997;52.242;8.168;2023-03-01T01:41:14;13.32;;;8.80;;
21671;SDS011;10997;52.242;8.168;2023-03-01T01:51:37;16.73;;;9.13;;
21671;SDS011;10997;52.242;8.168;2023-03-01T01:56:44;13.45;;;8.68;;
21671;SDS011;10997;52.242;8.168;2023-03-01T02:01:49;11.95;;;8.02;;
21671;SDS011;10997;52.242;8.168;2023-03-01T02:06:53;12.60;;;8.45;;
21671;SDS011;10997;52.242;8.168;2023-03-01T02:12:03;14.20;;;8.73;;
21671;SDS011;10997;52.242;8.168;2023-03-01T02:17:04;14.95;;;8.07;;
21671;SDS011;10997;52.242;8.168;2023-03-01T02:22:10;12.60;;;8.63;;
21671;SDS011;10997;52.242;8.168;2023-03-01T02:27:25;14.30;;;8.50;;
21671;SDS011;10997;52.242;8.168;2023-03-01T02:32:33;13.75;;;7.85;;
21671;SDS011;10997;52.242;8.168;2023-03-01T02:37:35;11.48;;;8.02;;
21671;SDS011;10997;52.242;8.168;2023-03-01T02:42:36;12.35;;;8.35;;
21671;SDS011;10997;52.242;8.168;2023-03-01T02:47:48;16.13;;;8.15;;
21671;SDS011;10997;52.242;8.168;2023-03-01T02:52:53;15.57;;;8.10;;
21671;SDS011;10997;52.242;8.168;2023-03-01T02:58:20;13.60;;;8.32;;
21671;SDS011;10997;52.242;8.168;2023-03-01T03:03:21;13.75;;;8.10;;
21671;SDS011;10997;52.242;8.168;2023-03-01T03:08:22;12.05;;;7.63;;
21671;SDS011;10997;52.242;8.168;2023-03-01T03:13:23;11.55;;;7.82;;
21671;SDS011;10997;52.242;8.168;2023-03-01T03:18:28;11.43;;;8.18;;
21671;SDS011;10997;52.242;8.168;2023-03-01T03:23:29;14.52;;;8.93;;
21671;SDS011;10997;52.242;8.168;2023-03-01T03:28:33;13.70;;;8.80;;
21671;SDS011;10997;52.242;8.168;2023-03-01T03:33:34;13.48;;;8.65;;
21671;SDS011;10997;52.242;8.168;2023-03-01T03:38:35;13.02;;;9.05;;
21671;SDS011;10997;52.242;8.168;2023-03-01T03:43:36;16.35;;;10.25;;
21671;SDS011;10997;52.242;8.168;2023-03-01T03:48:47;16.95;;;9.50;;
21671;SDS011;10997;52.242;8.168;2023-03-01T03:53:49;16.85;;;9.98;;
21671;SDS011;10997;52.242;8.168;2023-03-01T03:58:49;16.13;;;9.23;;
21671;SDS011;10997;52.242;8.168;2023-03-01T04:03:50;16.13;;;9.90;;
21671;SDS011;10997;52.242;8.168;2023-03-01T04:08:54;16.55;;;10.55;;
21671;SDS011;10997;52.242;8.168;2023-03-01T04:13:58;15.45;;;10.15;;
21671;SDS011;10997;52.242;8.168;2023-03-01T04:18:59;15.15;;;10.55;;
21671;SDS011;10997;52.242;8.168;2023-03-01T04:24:00;17.30;;;11.38;;
21671;SDS011;10997;52.242;8.168;2023-03-01T04:29:03;14.40;;;9.88;;
21671;SDS011;10997;52.242;8.168;2023-03-01T04:34:04;14.07;;;9.90;;
21671;SDS011;10997;52.242;8.168;2023-03-01T04:39:04;16.33;;;9.90;;
21671;SDS011;10997;52.242;8.168;2023-03-01T04:44:12;16.13;;;10.38;;
21671;SDS011;10997;52.242;8.168;2023-03-01T04:49:12;18.98;;;10.68;;
21671;SDS011;10997;52.242;8.168;2023-03-01T04:54:13;16.98;;;10.07;;
21671;SDS011;10997;52.242;8.168;2023-03-01T04:59:13;18.25;;;10.55;;
21671;SDS011;10997;52.242;8.168;2023-03-01T05:04:14;20.50;;;11.05;;
21671;SDS011;10997;52.242;8.168;2023-03-01T05:09:15;16.42;;;10.80;;
21671;SDS011;10997;52.242;8.168;2023-03-01T05:14:15;19.35;;;11.07;;
21671;SDS011;10997;52.242;8.168;2023-03-01T05:19:16;17.08;;;11.63;;
21671;SDS011;10997;52.242;8.168;2023-03-01T05:24:22;17.15;;;10.88;;
21671;SDS011;10997;52.242;8.168;2023-03-01T05:29:24;15.27;;;10.82;;
21671;SDS011;10997;52.242;8.168;2023-03-01T05:34:25;15.45;;;11.68;;
21671;SDS011;10997;52.242;8.168;2023-03-01T05:39:28;19.42;;;12.02;;
21671;SDS011;10997;52.242;8.168;2023-03-01T05:44:30;18.63;;;11.45;;
21671;SDS011;10997;52.242;8.168;2023-03-01T05:49:31;18.58;;;12.63;;
21671;SDS011;10997;52.242;8.168;2023-03-01T05:54:32;19.83;;;12.32;;
21671;SDS011;10997;52.242;8.168;2023-03-01T05:59:33;22.13;;;12.73;;
21671;SDS011;10997;52.242;8.168;2023-03-01T06:04:33;20.77;;;12.13;;
21671;SDS011;10997;52.242;8.168;2023-03-01T06:09:34;20.73;;;11.38;;
21671;SDS011;10997;52.242;8.168;2023-03-01T06:14:34;17.88;;;11.07;;
21671;SDS011;10997;52.242;8.168;2023-03-01T06:19:35;21.23;;;11.45;;
21671;SDS011;10997;52.242;8.168;2023-03-01T06:24:35;16.90;;;10.57;;
21671;SDS011;10997;52.242;8.168;2023-03-01T06:29:36;17.05;;;11.45;;
21671;SDS011;10997;52.242;8.168;2023-03-01T06:34:37;20.10;;;11.70;;
21671;SDS011;10997;52.242;8.168;2023-03-01T06:39:37;17.58;;;11.30;;
21671;SDS011;10997;52.242;8.168;2023-03-01T06:44:38;22.75;;;12.57;;
21671;SDS011;10997;52.242;8.168;2023-03-01T06:49:39;22.33;;;12.70;;
21671;SDS011;10997;52.242;8.168;2023-03-01T06:54:40;18.85;;;12.98;;
21671;SDS011;10997;52.242;8.168;2023-03-01T06:59:41;23.27;;;12.88;;
21671;SDS011;10997;52.242;8.168;2023-03-01T07:04:41;23.40;;;13.70;;
21671;SDS011;10997;52.242;8.168;2023-03-01T07:09:42;21.10;;;13.70;;
21671;SDS011;10997;52.242;8.168;2023-03-01T07:14:43;21.45;;;13.93;;
21671;SDS011;10997;52.242;8.168;2023-03-01T07:19:44;24.25;;;15.73;;
21671;SDS011;10997;52.242;8.168;2023-03-01T07:24:45;21.73;;;15.13;;
21671;SDS011;10997;52.242;8.168;2023-03-01T07:29:45;24.33;;;15.07;;
21671;SDS011;10997;52.242;8.168;2023-03-01T07:34:46;56.60;;;32.55;;
21671;SDS011;10997;52.242;8.168;2023-03-01T07:39:46;50.53;;;30.70;;
21671;SDS011;10997;52.242;8.168;2023-03-01T07:44:47;47.92;;;28.05;;
21671;SDS011;10997;52.242;8.168;2023-03-01T07:49:47;32.25;;;19.60;;
21671;SDS011;10997;52.242;8.168;2023-03-01T07:54:48;29.45;;;19.60;;
21671;SDS011;10997;52.242;8.168;2023-03-01T07:59:49;34.88;;;21.75;;
21671;SDS011;10997;52.242;8.168;2023-03-01T08:04:49;28.85;;;19.20;;
21671;SDS011;10997;52.242;8.168;2023-03-01T08:09:50;27.33;;;19.10;;
21671;SDS011;10997;52.242;8.168;2023-03-01T08:14:50;28.02;;;19.00;;
21671;SDS011;10997;52.242;8.168;2023-03-01T08:19:51;24.20;;;17.15;;
21671;SDS011;10997;52.242;8.168;2023-03-01T08:24:51;23.05;;;16.30;;
21671;SDS011;10997;52.242;8.168;2023-03-01T08:29:52;23.25;;;15.38;;
21671;SDS011;10997;52.242;8.168;2023-03-01T08:34:53;19.38;;;14.38;;
21671;SDS011;10997;52.242;8.168;2023-03-01T08:39:53;23.88;;;14.75;;
21671;SDS011;10997;52.242;8.168;2023-03-01T08:44:54;20.25;;;13.57;;
21671;SDS011;10997;52.242;8.168;2023-03-01T08:49:56;23.15;;;14.25;;
21671;SDS011;10997;52.242;8.168;2023-03-01T08:54:57;21.73;;;13.27;;
21671;SDS011;10997;52.242;8.168;2023-03-01T08:59:57;19.88;;;13.20;;
21671;SDS011;10997;52.242;8.168;2023-03-01T09:04:58;20.15;;;12.90;;
21671;SDS011;10997;52.242;8.168;2023-03-01T09:09:59;17.92;;;11.38;;
21671;SDS011;10997;52.242;8.168;2023-03-01T09:14:59;16.15;;;10.80;;
21671;SDS011;10997;52.242;8.168;2023-03-01T09:20:00;16.20;;;10.20;;
21671;SDS011;10997;52.242;8.168;2023-03-01T09:25:00;16.17;;;9.02;;
21671;SDS011;10997;52.242;8.168;2023-03-01T09:30:01;16.55;;;9.65;;
21671;SDS011;10997;52.242;8.168;2023-03-01T09:35:02;14.30;;;8.75;;
21671;SDS011;10997;52.242;8.168;2023-03-01T09:40:06;14.10;;;9.60;;
21671;SDS011;10997;52.242;8.168;2023-03-01T09:45:20;12.93;;;8.13;;
21671;SDS011;10997;52.242;8.168;2023-03-01T09:50:43;12.05;;;7.05;;
21671;SDS011;10997;52.242;8.168;2023-03-01T09:55:59;11.00;;;7.13;;
21671;SDS011;10997;52.242;8.168;2023-03-01T10:01:02;11.68;;;6.82;;
21671;SDS011;10997;52.242;8.168;2023-03-01T10:06:23;10.55;;;7.10;;
21671;SDS011;10997;52.242;8.168;2023-03-01T10:11:26;11.32;;;6.75;;
21671;SDS011;10997;52.242;8.168;2023-03-01T10:22:00;9.63;;;5.95;;
21671;SDS011;10997;52.242;8.168;2023-03-01T10:27:07;10.35;;;5.70;;
21671;SDS011;10997;52.242;8.168;2023-03-01T10:32:16;10.20;;;6.07;;
21671;SDS011;10997;52.242;8.168;2023-03-01T10:37:19;12.02;;;6.20;;
21671;SDS011;10997;52.242;8.168;2023-03-01T10:42:32;10.38;;;5.82;;
21671;SDS011;10997;52.242;8.168;2023-03-01T10:47:34;9.98;;;5.93;;
21671;SDS011;10997;52.242;8.168;2023-03-01T10:52:39;10.27;;;6.82;;
21671;SDS011;10997;52.242;8.168;2023-03-01T10:57:41;9.80;;;6.15;;
21671;SDS011;10997;52.242;8.168;2023-03-01T11:02:42;11.32;;;6.22;;
21671;SDS011;10997;52.242;8.168;2023-03-01T11:07:49;10.98;;;6.53;;
21671;SDS011;10997;52.242;8.168;2023-03-01T11:12:52;16.20;;;7.80;;
21671;SDS011;10997;52.242;8.168;2023-03-01T11:18:05;11.15;;;7.32;;
21671;SDS011;10997;52.242;8.168;2023-03-01T11:23:21;11.75;;;7.32;;
21671;SDS011;10997;52.242;8.168;2023-03-01T11:28:23;12.60;;;7.88;;
21671;SDS011;10997;52.242;8.168;2023-03-01T11:33:34;12.40;;;8.00;;
21671;SDS011;10997;52.242;8.168;2023-03-01T11:38:38;13.63;;;7.97;;
21671;SDS011;10997;52.242;8.168;2023-03-01T11:54:27;10.68;;;6.78;;
21671;SDS011;10997;52.242;8.168;2023-03-01T12:00:19;9.93;;;6.25;;
21671;SDS011;10997;52.242;8.168;2023-03-01T12:16:01;7.43;;;4.70;;
21671;SDS011;10997;52.242;8.168;2023-03-01T12:26:35;6.47;;;4.63;;
21671;SDS011;10997;52.242;8.168;2023-03-01T13:19:24;7.50;;;4.78;;
21671;SDS011;10997;52.242;8.168;2023-03-01T13:24:32;7.57;;;5.10;;
21671;SDS011;10997;52.242;8.168;2023-03-01T13:39:58;8.32;;;5.15;;
21671;SDS011;10997;52.242;8.168;2023-03-01T13:45:05;7.22;;;4.10;;
21671;SDS011;10997;52.242;8.168;2023-03-01T13:50:36;7.25;;;4.70;;
21671;SDS011;10997;52.242;8.168;2023-03-01T13:55:46;6.68;;;4.43;;
21671;SDS011;10997;52.242;8.168;2023-03-01T14:01:20;6.00;;;4.40;;
21671;SDS011;10997;52.242;8.168;2023-03-01T14:06:30;7.97;;;4.55;;
21671;SDS011;10997;52.242;8.168;2023-03-01T14:27:23;7.03;;;4.80;;
21671;SDS011;10997;52.242;8.168;2023-03-01T14:32:51;8.15;;;4.68;;
21671;SDS011;10997;52.242;8.168;2023-03-01T14:38:00;7.33;;;4.70;;
21671;SDS011;10997;52.242;8.168;2023-03-01T14:43:01;6.63;;;4.32;;
21671;SDS011;10997;52.242;8.168;2023-03-01T14:48:10;6.80;;;4.65;;
21671;SDS011;10997;52.242;8.168;2023-03-01T14:53:22;7.53;;;4.40;;
21671;SDS011;10997;52.242;8.168;2023-03-01T14:58:26;7.03;;;4.43;;
21671;SDS011;10997;52.242;8.168;2023-03-01T15:03:34;6.90;;;4.13;;
21671;SDS011;10997;52.242;8.168;2023-03-01T15:08:45;6.88;;;3.80;;
21671;SDS011;10997;52.242;8.168;2023-03-01T15:13:48;5.53;;;3.95;;
21671;SDS011;10997;52.242;8.168;2023-03-01T15:18:53;5.97;;;3.92;;
21671;SDS011;10997;52.242;8.168;2023-03-01T15:29:20;4.65;;;3.40;;
21671;SDS011;10997;52.242;8.168;2023-03-01T15:34:24;6.22;;;3.35;;
21671;SDS011;10997;52.242;8.168;2023-03-01T15:39:41;7.60;;;3.63;;
21671;SDS011;10997;52.242;8.168;2023-03-01T15:44:43;6.32;;;3.50;;
21671;SDS011;10997;52.242;8.168;2023-03-01T15:49:45;4.93;;;3.40;;
21671;SDS011;10997;52.242;8.168;2023-03-01T15:54:45;5.63;;;3.53;;
21671;SDS011;10997;52.242;8.168;2023-03-01T15:59:46;4.90;;;3.50;;
21671;SDS011;10997;52.242;8.168;2023-03-01T16:04:47;5.30;;;3.60;;
21671;SDS011;10997;52.242;8.168;2023-03-01T16:09:48;6.22;;;4.00;;
21671;SDS011;10997;52.242;8.168;2023-03-01T16:14:49;9.25;;;5.20;;
21671;SDS011;10997;52.242;8.168;2023-03-01T16:19:50;6.93;;;4.28;;
21671;SDS011;10997;52.242;8.168;2023-03-01T16:24:51;5.70;;;3.80;;
21671;SDS011;10997;52.242;8.168;2023-03-01T16:29:51;6.43;;;4.00;;
21671;SDS011;10997;52.242;8.168;2023-03-01T16:34:52;5.43;;;3.85;;
21671;SDS011;10997;52.242;8.168;2023-03-01T16:39:53;7.53;;;4.22;;
21671;SDS011;10997;52.242;8.168;2023-03-01T16:44:56;7.00;;;4.22;;
21671;SDS011;10997;52.242;8.168;2023-03-01T16:49:57;8.57;;;5.40;;
21671;SDS011;10997;52.242;8.168;2023-03-01T16:54:57;56.75;;;23.17;;
21671;SDS011;10997;52.242;8.168;2023-03-01T16:59:58;19.10;;;8.85;;
21671;SDS011;10997;52.242;8.168;2023-03-01T17:04:59;13.27;;;7.53;;
21671;SDS011;10997;52.242;8.168;2023-03-01T17:10:00;11.02;;;5.70;;
21671;SDS011;10997;52.242;8.168;2023-03-01T17:15:01;6.60;;;4.22;;
21671;SDS011;10997;52.242;8.168;2023-03-01T17:20:02;30.73;;;16.85;;
21671;SDS011;10997;52.242;8.168;2023-03-01T17:25:03;47.25;;;24.02;;
21671;SDS011;10997;52.242;8.168;2023-03-01T17:30:05;11.25;;;7.68;;
21671;SDS011;10997;52.242;8.168;2023-03-01T17:35:09;7.90;;;4.78;;
21671;SDS011;10997;52.242;8.168;2023-03-01T17:40:13;7.38;;;4.85;;
21671;SDS011;10997;52.242;8.168;2023-03-01T17:45:13;8.95;;;6.13;;
21671;SDS011;10997;52.242;8.168;2023-03-01T17:50:14;7.68;;;4.47;;
21671;SDS011;10997;52.242;8.168;2023-03-01T17:55:15;10.55;;;6.10;;
21671;SDS011;10997;52.242;8.168;2023-03-01T18:00:16;9.38;;;5.40;;
21671;SDS011;10997;52.242;8.168;2023-03-01T18:05:17;20.73;;;9.25;;
21671;SDS011;10997;52.242;8.168;2023-03-01T18:10:18;52.42;;;33.03;;
21671;SDS011;10997;52.242;8.168;2023-03-01T18:15:20;13.18;;;8.82;;
21671;SDS011;10997;52.242;8.168;2023-03-01T18:20:20;13.07;;;7.10;;
21671;SDS011;10997;52.242;8.168;2023-03-01T18:25:21;12.45;;;6.82;;
21671;SDS011;10997;52.242;8.168;2023-03-01T18:30:22;19.20;;;8.93;;
21671;SDS011;10997;52.242;8.168;2023-03-01T18:35:22;19.80;;;10.52;;
21671;SDS011;10997;52.242;8.168;2023-03-01T18:40:23;13.68;;;7.90;;
21671;SDS011;10997;52.242;8.168;2023-03-01T18:45:23;11.00;;;7.00;;
21671;SDS011;10997;52.242;8.168;2023-03-01T18:50:24;10.85;;;7.00;;
21671;SDS011;10997;52.242;8.168;2023-03-01T18:55:25;15.15;;;8.65;;
21671;SDS011;10997;52.242;8.168;2023-03-01T19:00:25;14.93;;;9.98;;
21671;SDS011;10997;52.242;8.168;2023-03-01T19:05:26;16.70;;;9.68;;
21671;SDS011;10997;52.242;8.168;2023-03-01T19:10:27;16.25;;;9.80;;
21671;SDS011;10997;52.242;8.168;2023-03-01T19:15:28;20.45;;;11.50;;
21671;SDS011;10997;52.242;8.168;2023-03-01T19:20:28;19.83;;;11.52;;
21671;SDS011;10997;52.242;8.168;2023-03-01T19:25:29;33.10;;;19.52;;
21671;SDS011;10997;52.242;8.168;2023-03-01T19:30:30;14.98;;;9.55;;
21671;SDS011;10997;52.242;8.168;2023-03-01T19:35:32;28.42;;;16.30;;
21671;SDS011;10997;52.242;8.168;2023-03-01T19:40:34;40.17;;;23.33;;
21671;SDS011;10997;52.242;8.168;2023-03-01T19:45:35;46.78;;;28.60;;
21671;SDS011;10997;52.242;8.168;2023-03-01T19:50:35;37.00;;;22.80;;
21671;SDS011;10997;52.242;8.168;2023-03-01T19:55:37;34.95;;;22.25;;
21671;SDS011;10997;52.242;8.168;2023-03-01T20:00:38;33.88;;;21.35;;
21671;SDS011;10997;52.242;8.168;2023-03-01T20:05:43;34.30;;;21.67;;
21671;SDS011;10997;52.242;8.168;2023-03-01T20:10:44;37.97;;;23.10;;
21671;SDS011;10997;52.242;8.168;2023-03-01T20:15:44;32.90;;;20.40;;
21671;SDS011;10997;52.242;8.168;2023-03-01T20:20:47;33.17;;;20.40;;
21671;SDS011;10997;52.242;8.168;2023-03-01T20:25:48;34.47;;;22.33;;
21671;SDS011;10997;52.242;8.168;2023-03-01T20:30:49;37.60;;;22.85;;
21671;SDS011;10997;52.242;8.168;2023-03-01T20:35:50;33.13;;;21.33;;
21671;SDS011;10997;52.242;8.168;2023-03-01T20:40:55;33.45;;;20.38;;
21671;SDS011;10997;52.242;8.168;2023-03-01T20:45:57;34.10;;;20.95;;
21671;SDS011;10997;52.242;8.168;2023-03-01T20:51:07;30.90;;;19.58;;
21671;SDS011;10997;52.242;8.168;2023-03-01T20:56:10;31.30;;;19.17;;
21671;SDS011;10997;52.242;8.168;2023-03-01T21:01:17;30.38;;;19.15;;
21671;SDS011;10997;52.242;8.168;2023-03-01T21:06:19;30.95;;;19.70;;
21671;SDS011;10997;52.242;8.168;2023-03-01T21:11:20;29.60;;;19.20;;
21671;SDS011;10997;52.242;8.168;2023-03-01T21:16:24;31.13;;;17.90;;
21671;SDS011;10997;52.242;8.168;2023-03-01T21:21:25;27.33;;;16.40;;
21671;SDS011;10997;52.242;8.168;2023-03-01T21:26:26;25.52;;;14.32;;
21671;SDS011;10997;52.242;8.168;2023-03-01T21:31:31;24.60;;;13.85;;
21671;SDS011;10997;52.242;8.168;2023-03-01T21:36:34;23.08;;;13.57;;
21671;SDS011;10997;52.242;8.168;2023-03-01T21:41:35;21.27;;;12.85;;
21671;SDS011;10997;52.242;8.168;2023-03-01T21:46:37;24.33;;;12.77;;
21671;SDS011;10997;52.242;8.168;2023-03-01T21:51:38;18.33;;;11.40;;
21671;SDS011;10997;52.242;8.168;2023-03-01T21:56:39;18.15;;;11.32;;
21671;SDS011;10997;52.242;8.168;2023-03-01T22:01:41;16.58;;;10.30;;
21671;SDS011;10997;52.242;8.168;2023-03-01T22:06:42;21.42;;;10.57;;
21671;SDS011;10997;52.242;8.168;2023-03-01T22:11:45;16.63;;;9.52;;
21671;SDS011;10997;52.242;8.168;2023-03-01T22:16:47;15.70;;;9.68;;
21671;SDS011;10997;52.242;8.168;2023-03-01T22:21:50;18.70;;;10.07;;
21671;SDS011;10997;52.242;8.168;2023-03-01T22:26:52;16.77;;;10.15;;
21671;SDS011;10997;52.242;8.168;2023-03-01T22:31:54;15.65;;;9.18;;
21671;SDS011;10997;52.242;8.168;2023-03-01T22:36:55;16.85;;;9.43;;
21671;SDS011;10997;52.242;8.168;2023-03-01T22:41:56;15.25;;;9.15;;
21671;SDS011;10997;52.242;8.168;2023-03-01T22:46:56;14.05;;;8.43;;
21671;SDS011;10997;52.242;8.168;2023-03-01T22:51:57;16.45;;;9.23;;
21671;SDS011;10997;52.242;8.168;2023-03-01T22:56:58;16.65;;;8.70;;
21671;SDS011;10997;52.242;8.168;2023-03-01T23:01:58;16.25;;;9.68;;
21671;SDS011;10997;52.242;8.168;2023-03-01T23:06:59;17.23;;;10.18;;
21671;SDS011;10997;52.242;8.168;2023-03-01T23:12:00;16.85;;;9.48;;
21671;SDS011;10997;52.242;8.168;2023-03-01T23:17:05;18.45;;;9.27;;
21671;SDS011;10997;52.242;8.168;2023-03-01T23:22:07;22.35;;;10.38;;
21671;SDS011;10997;52.242;8.168;2023-03-01T23:27:07;19.52;;;9.90;;
21671;SDS011;10997;52.242;8.168;2023-03-01T23:32:09;15.02;;;8.88;;
21671;SDS011;10997;52.242;8.168;2023-03-01T23:37:13;15.43;;;7.95;;
21671;SDS011;10997;52.242;8.168;2023-03-01T23:42:14;14.68;;;8.50;;
21671;SDS011;10997;52.242;8.168;2023-03-01T23:47:14;16.35;;;7.93;;
21671;SDS011;10997;52.242;8.168;2023-03-01T23:52:15;13.20;;;7.53;;
21671;SDS011;10997;52.242;8.168;2023-03-01T23:57:16;12.15;;;7.28;;
